Time;durP1;ratioP1;P1;durP2;ratioP2;P2;SDS_P1;SDS_P2;PMS_P1;PMS_P2;Temp;Humidity;BMP_temperature;BMP_pressure;BME280_temperature;BME280_humidity;BME280_pressure;Samples;Min_cycle;Max_cycle;Signal;HPM_P1;HPM_P2
2023/08/30 00:00:25;;;;;;;18.40;14.67;;;;;;;13.41;100.00;154805.50;5063721;28;20509;-87
2023/08/30 00:02:52;;;;;;;18.00;15.60;;;;;;;13.42;100.00;154808.06;5061761;28;20473;-87
2023/08/30 00:05:18;;;;;;;16.87;14.83;;;;;;;13.41;100.00;154805.50;5048176;28;20435;-87
2023/08/30 00:07:45;;;;;;;21.33;13.80;;;;;;;13.45;100.00;154813.28;5031391;28;20806;-87
2023/08/30 00:10:11;;;;;;;17.47;15.13;;;;;;;13.46;100.00;154815.84;5050393;28;20485;-87
2023/08/30 00:12:38;;;;;;;18.83;14.90;;;;;;;13.45;100.00;154814.53;5067190;28;21009;-86
2023/08/30 00:15:08;;;;;;;17.50;15.70;;;;;;;13.43;100.00;154810.66;5071983;28;20529;-87
2023/08/30 00:17:34;;;;;;;15.57;13.87;;;;;;;13.46;100.00;154815.84;5045563;28;20455;-87
2023/08/30 00:20:01;;;;;;;17.00;15.20;;;;;;;13.45;100.00;154813.28;5070569;28;20550;-87
2023/08/30 00:22:28;;;;;;;17.37;15.17;;;;;;;13.45;100.00;154814.53;5083991;28;20449;-86
2023/08/30 00:24:55;;;;;;;17.17;15.00;;;;;;;13.44;100.00;154811.97;5063563;28;20438;-87
2023/08/30 00:27:21;;;;;;;17.07;15.43;;;;;;;13.43;100.00;154809.38;5051577;28;20465;-87
2023/08/30 00:29:48;;;;;;;15.30;13.70;;;;;;;13.41;100.00;154805.50;5058773;28;20512;-87
2023/08/30 00:32:16;;;;;;;15.47;13.70;;;;;;;13.42;100.00;154808.06;5072184;28;20448;-88
2023/08/30 00:34:42;;;;;;;16.90;15.00;;;;;;;13.38;100.00;154797.69;5072350;28;20446;-87
2023/08/30 00:37:09;;;;;;;16.50;14.80;;;;;;;13.39;100.00;154799.00;5040193;28;20451;-87
2023/08/30 00:39:38;;;;;;;17.63;13.30;;;;;;;13.35;100.00;154789.91;5048203;28;20441;-87
2023/08/30 00:42:07;;;;;;;16.23;13.30;;;;;;;13.36;100.00;154792.53;5026976;28;20478;-87
2023/08/30 00:44:35;;;;;;;17.73;15.23;;;;;;;13.35;100.00;154788.59;5030381;28;20479;-87
2023/08/30 00:47:02;;;;;;;16.47;13.77;;;;;;;13.35;100.00;154789.91;5051290;28;20473;-87
2023/08/30 00:49:32;;;;;;;16.80;15.07;;;;;;;13.35;100.00;154789.91;5052829;28;20434;-87
2023/08/30 00:51:58;;;;;;;15.07;13.47;;;;;;;13.33;100.00;154784.72;5048781;28;20470;-88
2023/08/30 00:54:25;;;;;;;15.60;13.67;;;;;;;13.34;100.00;154787.28;5046549;28;20496;-87
2023/08/30 00:56:52;;;;;;;16.53;13.97;;;;;;;13.33;100.00;154784.72;5042658;28;20988;-87
2023/08/30 00:59:19;;;;;;;16.80;15.07;;;;;;;13.31;100.00;154778.25;5044121;28;20542;-88
2023/08/30 01:01:46;;;;;;;15.07;13.57;;;;;;;13.31;100.00;154779.56;5047167;28;20909;-89
2023/08/30 01:04:13;;;;;;;16.20;14.00;;;;;;;13.27;100.00;154769.13;5048890;28;20503;-88
2023/08/30 01:06:41;;;;;;;14.60;13.20;;;;;;;13.26;100.00;154765.28;5042106;28;20446;-89
2023/08/30 01:09:08;;;;;;;16.10;13.63;;;;;;;13.26;100.00;154766.53;5033101;28;20981;-87
2023/08/30 01:11:38;;;;;;;15.10;13.40;;;;;;;13.23;100.00;154757.47;5025919;28;21098;-88
2023/08/30 01:14:09;;;;;;;16.03;13.97;;;;;;;13.21;100.00;154753.56;5017678;28;20458;-88
2023/08/30 01:16:36;;;;;;;17.30;15.20;;;;;;;13.23;100.00;154758.78;5052182;28;20478;-88
2023/08/30 01:19:08;;;;;;;14.20;12.80;;;;;;;13.19;100.00;154747.06;5054175;28;20462;-88
2023/08/30 01:21:43;;;;;;;16.90;15.10;;;;;;;13.19;100.00;154747.06;5021095;28;20462;-88
2023/08/30 01:24:13;;;;;;;16.37;14.13;;;;;;;13.14;100.00;154734.09;5038670;28;20466;-88
2023/08/30 01:26:43;;;;;;;16.10;14.40;;;;;;;13.14;100.00;154735.41;5051068;28;20462;-88
2023/08/30 01:29:12;;;;;;;14.93;13.37;;;;;;;13.14;100.00;154735.41;5031007;28;20496;-87
2023/08/30 01:31:41;;;;;;;16.07;14.40;;;;;;;13.20;100.00;154749.69;5016749;28;20455;-88
2023/08/30 01:34:08;;;;;;;15.70;13.97;;;;;;;13.16;100.00;154739.28;5022751;28;20452;-87
2023/08/30 01:36:35;;;;;;;16.20;13.80;;;;;;;13.10;100.00;154723.75;5034804;28;20500;-87
2023/08/30 01:39:04;;;;;;;15.17;12.40;;;;;;;13.11;100.00;154726.31;5013738;28;20541;-87
2023/08/30 01:41:31;;;;;;;15.23;13.60;;;;;;;13.13;100.00;154732.78;5025911;28;20516;-87
2023/08/30 01:44:03;;;;;;;14.70;13.20;;;;;;;13.13;100.00;154732.78;5034741;28;20894;-87
2023/08/30 01:46:32;;;;;;;16.30;14.60;;;;;;;13.15;100.00;154736.72;5026591;28;20787;-87
2023/08/30 01:48:58;;;;;;;15.43;13.70;;;;;;;13.08;100.00;154719.81;5050152;28;20447;-87
2023/08/30 01:51:27;;;;;;;18.67;15.23;;;;;;;13.06;100.00;154714.59;5028702;28;20837;-87
2023/08/30 01:53:55;;;;;;;15.00;13.00;;;;;;;13.03;100.00;154706.81;5064084;28;20470;-88
2023/08/30 01:56:21;;;;;;;15.33;13.10;;;;;;;13.00;100.00;154697.75;5046729;28;20470;-88
2023/08/30 01:58:48;;;;;;;16.47;14.80;;;;;;;13.00;100.00;154699.03;5015850;28;20490;-87
2023/08/30 02:01:15;;;;;;;14.53;11.60;;;;;;;12.96;100.00;154687.34;5023618;28;20489;-87
2023/08/30 02:03:45;;;;;;;14.03;12.63;;;;;;;12.92;100.00;154678.25;5033838;28;20494;-88
2023/08/30 02:06:15;;;;;;;14.13;12.73;;;;;;;12.89;100.00;154670.53;5013421;28;20466;-88
2023/08/30 02:08:47;;;;;;;14.67;13.03;;;;;;;12.90;100.00;154673.09;5018699;28;20471;-88
2023/08/30 02:11:16;;;;;;;15.20;13.60;;;;;;;12.89;100.00;154670.53;5050233;28;20459;-88
2023/08/30 02:13:43;;;;;;;15.20;13.20;;;;;;;12.91;100.00;154675.69;5022318;28;20437;-87
2023/08/30 02:16:10;;;;;;;15.03;13.53;;;;;;;12.92;100.00;154677.00;5039097;28;20459;-87
2023/08/30 02:18:37;;;;;;;15.27;12.80;;;;;;;12.90;100.00;154673.09;5009545;28;20472;-87
2023/08/30 02:21:07;;;;;;;16.07;13.40;;;;;;;12.89;100.00;154669.22;4994116;28;20447;-87
2023/08/30 02:23:34;;;;;;;14.47;12.70;;;;;;;12.87;100.00;154665.28;5067693;28;20477;-87
2023/08/30 02:26:02;;;;;;;14.10;12.50;;;;;;;12.87;100.00;154665.28;5027985;28;20826;-87
2023/08/30 02:28:29;;;;;;;17.10;13.33;;;;;;;12.90;100.00;154673.09;5028696;28;20429;-88
2023/08/30 02:30:56;;;;;;;17.87;14.90;;;;;;;12.89;100.00;154670.53;5043675;28;20449;-87
2023/08/30 02:33:22;;;;;;;14.50;12.70;;;;;;;12.88;100.00;154667.91;5034272;28;20447;-88
2023/08/30 02:35:49;;;;;;;14.90;12.73;;;;;;;12.89;100.00;154670.53;5040729;28;20570;-87
2023/08/30 02:38:17;;;;;;;13.90;12.47;;;;;;;12.87;100.00;154665.28;5026766;28;20543;-87
2023/08/30 02:40:44;;;;;;;15.10;13.50;;;;;;;12.86;100.00;154662.72;5063993;28;20459;-88
2023/08/30 02:43:10;;;;;;;16.00;14.30;;;;;;;12.87;100.00;154664.03;5057806;28;20550;-87
2023/08/30 02:45:37;;;;;;;14.60;12.97;;;;;;;12.89;100.00;154670.53;5067354;28;20474;-87
2023/08/30 02:48:04;;;;;;;14.13;12.63;;;;;;;12.92;100.00;154678.25;5057197;28;20451;-87
2023/08/30 02:50:31;;;;;;;17.13;15.37;;;;;;;12.91;100.00;154674.41;5067578;28;20946;-88
2023/08/30 02:52:57;;;;;;;15.60;13.77;;;;;;;12.89;100.00;154670.53;5060144;28;20482;-88
2023/08/30 02:55:25;;;;;;;15.80;13.70;;;;;;;12.90;100.00;154671.78;5041258;28;20463;-88
2023/08/30 02:57:52;;;;;;;14.53;12.87;;;;;;;12.89;100.00;154670.53;5048054;28;20534;-87
2023/08/30 03:00:18;;;;;;;15.33;13.70;;;;;;;12.88;100.00;154667.91;4996260;28;21010;-88
2023/08/30 03:02:48;;;;;;;15.67;13.97;;;;;;;12.84;100.00;154657.50;5027781;28;20451;-88
2023/08/30 03:05:15;;;;;;;16.00;14.30;;;;;;;12.81;100.00;154649.75;5045632;28;20478;-87
2023/08/30 03:07:42;;;;;;;15.10;13.50;;;;;;;12.79;100.00;154644.53;5046602;28;20438;-88
2023/08/30 03:10:09;;;;;;;15.40;13.80;;;;;;;12.76;100.00;154636.81;5013931;28;20810;-88
2023/08/30 03:12:38;;;;;;;15.33;13.63;;;;;;;12.76;100.00;154638.06;5046278;28;20455;-88
2023/08/30 03:15:06;;;;;;;16.00;14.07;;;;;;;12.71;100.00;154623.78;5042333;28;20948;-88
2023/08/30 03:17:33;;;;;;;16.40;14.17;;;;;;;12.72;100.00;154627.72;5048998;28;20450;-88
2023/08/30 03:20:00;;;;;;;14.97;13.43;;;;;;;12.71;100.00;154623.78;5036954;28;20876;-88
2023/08/30 03:22:26;;;;;;;15.20;13.60;;;;;;;12.69;100.00;154618.63;5043148;28;20474;-88
2023/08/30 03:24:53;;;;;;;14.90;12.73;;;;;;;12.64;100.00;154605.66;5025889;28;20470;-88
2023/08/30 03:27:20;;;;;;;14.50;12.80;;;;;;;12.62;100.00;154601.78;5047265;28;20802;-87
2023/08/30 03:29:48;;;;;;;16.07;13.97;;;;;;;12.59;100.00;154592.69;5036350;28;20447;-87
2023/08/30 03:32:16;;;;;;;16.53;13.87;;;;;;;12.55;100.00;154582.34;5028500;28;20890;-87
2023/08/30 03:34:45;;;;;;;14.40;12.90;;;;;;;12.50;100.00;154569.31;5061192;28;20454;-86
2023/08/30 03:37:11;;;;;;;14.90;13.30;;;;;;;12.46;100.00;154558.97;5032678;28;20536;-87
2023/08/30 03:39:38;;;;;;;16.20;14.07;;;;;;;12.48;100.00;154564.16;5053657;28;20462;-87
2023/08/30 03:42:05;;;;;;;16.70;14.40;;;;;;;12.53;100.00;154577.09;5012889;28;20451;-86
2023/08/30 03:44:32;;;;;;;17.00;14.60;;;;;;;12.53;100.00;154577.09;5039164;28;20844;-86
2023/08/30 03:47:00;;;;;;;17.43;13.90;;;;;;;12.52;100.00;154575.78;5039430;28;20457;-86
2023/08/30 03:49:26;;;;;;;15.23;13.63;;;;;;;12.54;100.00;154579.72;5015898;28;20452;-86
2023/08/30 03:51:53;;;;;;;16.90;14.67;;;;;;;12.56;100.00;154586.19;5027020;28;20445;-86
2023/08/30 03:54:19;;;;;;;15.30;13.70;;;;;;;12.55;100.00;154583.59;5037087;28;20456;-87
2023/08/30 03:56:46;;;;;;;16.00;14.27;;;;;;;12.58;100.00;154590.06;5030892;28;20459;-86
2023/08/30 03:59:13;;;;;;;17.40;15.57;;;;;;;12.60;100.00;154595.28;5026825;28;20467;-87
2023/08/30 04:01:40;;;;;;;16.47;14.60;;;;;;;12.61;100.00;154597.84;5009940;28;20829;-86
2023/08/30 04:04:08;;;;;;;16.43;14.63;;;;;;;12.59;100.00;154594.00;5044757;28;20478;-87
2023/08/30 04:06:35;;;;;;;16.60;13.70;;;;;;;12.60;100.00;154595.28;5043961;28;20612;-86
2023/08/30 04:09:01;;;;;;;15.47;13.40;;;;;;;12.59;100.00;154594.00;5050876;28;20793;-85
2023/08/30 04:11:28;;;;;;;17.00;14.27;;;;;;;12.61;100.00;154599.16;5050606;28;20454;-86
2023/08/30 04:13:55;;;;;;;16.50;12.97;;;;;;;12.60;100.00;154595.28;5047336;28;20443;-86
2023/08/30 04:16:21;;;;;;;15.30;13.67;;;;;;;12.61;100.00;154597.84;5032401;28;20924;-85
2023/08/30 04:18:48;;;;;;;16.80;14.10;;;;;;;12.63;100.00;154604.34;5026828;28;20885;-86
2023/08/30 04:21:16;;;;;;;18.20;14.10;;;;;;;12.66;100.00;154610.81;5044673;28;20482;-85
2023/08/30 04:23:42;;;;;;;16.23;14.30;;;;;;;12.65;100.00;154608.25;5046320;28;20555;-86
2023/08/30 04:26:09;;;;;;;18.83;15.40;;;;;;;12.64;100.00;154605.66;5030588;28;20557;-87
2023/08/30 04:28:36;;;;;;;15.67;13.70;;;;;;;12.64;100.00;154605.66;5015597;28;20481;-87
2023/08/30 04:31:03;;;;;;;17.50;15.67;;;;;;;12.65;100.00;154609.56;5022076;28;20458;-85
2023/08/30 04:33:29;;;;;;;15.73;14.03;;;;;;;12.63;100.00;154603.03;5012781;28;20451;-86
2023/08/30 04:35:56;;;;;;;16.40;14.63;;;;;;;12.65;100.00;154609.56;5050674;28;20447;-85
2023/08/30 04:38:24;;;;;;;19.77;15.53;;;;;;;12.67;100.00;154613.44;5032245;28;20443;-86
2023/08/30 04:40:50;;;;;;;15.20;13.43;;;;;;;12.66;100.00;154612.13;5032304;28;20821;-86
2023/08/30 04:43:17;;;;;;;15.00;13.40;;;;;;;12.69;100.00;154618.63;5013145;28;20937;-86
2023/08/30 04:45:43;;;;;;;16.40;14.50;;;;;;;12.69;100.00;154618.63;5039348;28;20478;-88
2023/08/30 04:48:11;;;;;;;17.27;13.87;;;;;;;12.67;100.00;154613.44;5014473;28;20462;-87
2023/08/30 04:50:37;;;;;;;16.80;14.27;;;;;;;12.68;100.00;154616.03;5031126;28;20542;-87
2023/08/30 04:53:05;;;;;;;18.27;14.70;;;;;;;12.66;100.00;154610.81;5028961;28;20489;-87
2023/08/30 04:55:33;;;;;;;16.80;15.07;;;;;;;12.66;100.00;154612.13;5012405;28;20462;-87
2023/08/30 04:58:00;;;;;;;17.17;14.47;;;;;;;12.66;100.00;154612.13;5050666;28;20457;-87
2023/08/30 05:00:31;;;;;;;15.53;13.93;;;;;;;12.68;100.00;154617.31;5013901;28;20443;-86
2023/08/30 05:02:57;;;;;;;15.27;13.77;;;;;;;12.68;100.00;154616.03;5031587;28;20470;-87
2023/08/30 05:05:24;;;;;;;17.90;16.00;;;;;;;12.69;100.00;154618.63;5046302;28;20577;-86
2023/08/30 05:07:50;;;;;;;19.40;15.20;;;;;;;12.69;100.00;154618.63;5068763;28;20446;-87
2023/08/30 05:10:17;;;;;;;15.73;14.10;;;;;;;12.70;100.00;154621.22;5019210;28;20538;-87
2023/08/30 05:12:49;;;;;;;16.43;13.20;;;;;;;12.69;100.00;154619.91;5072759;28;20545;-87
2023/08/30 05:15:16;;;;;;;14.27;12.77;;;;;;;12.70;100.00;154621.22;5052856;28;20445;-87
2023/08/30 05:17:43;;;;;;;16.27;14.27;;;;;;;12.70;100.00;154621.22;5036178;28;20454;-88
2023/08/30 05:20:10;;;;;;;14.27;12.77;;;;;;;12.70;100.00;154621.22;5022473;28;20474;-87
2023/08/30 05:22:36;;;;;;;15.50;13.07;;;;;;;12.71;100.00;154623.78;5021750;28;20459;-87
2023/08/30 05:25:04;;;;;;;15.60;13.90;;;;;;;12.72;100.00;154626.41;5038793;28;20478;-88
2023/08/30 05:27:31;;;;;;;15.70;13.47;;;;;;;12.73;100.00;154630.28;5055066;28;20505;-88
2023/08/30 05:29:59;;;;;;;17.13;15.33;;;;;;;12.74;100.00;154632.88;5018282;28;20455;-89
2023/08/30 05:32:25;;;;;;;16.90;14.50;;;;;;;12.76;100.00;154638.06;5022961;28;20474;-87
2023/08/30 05:35:10;;;;;;;14.90;13.30;;;;;;;12.79;100.00;154644.53;5075257;28;20443;-88
2023/08/30 05:37:56;;;;;;;15.97;13.97;;;;;;;12.80;100.00;154647.16;5053072;28;20524;-87
2023/08/30 05:40:42;;;;;;;14.43;12.93;;;;;;;12.81;100.00;154649.75;5007155;28;20600;-88
2023/08/30 05:43:08;;;;;;;14.97;13.37;;;;;;;12.85;100.00;154660.13;5021440;28;20451;-87
2023/08/30 05:45:37;;;;;;;15.80;14.10;;;;;;;12.85;100.00;154660.13;5019570;28;20479;-88
2023/08/30 05:48:04;;;;;;;15.37;13.70;;;;;;;12.87;100.00;154665.28;5034590;28;20455;-88
2023/08/30 05:50:31;;;;;;;14.27;12.87;;;;;;;12.88;100.00;154666.59;5019785;28;20462;-88
2023/08/30 05:52:58;;;;;;;15.73;13.73;;;;;;;12.90;100.00;154671.78;5019809;28;21007;-87
2023/08/30 05:55:24;;;;;;;14.40;12.43;;;;;;;12.92;100.00;154678.25;5019388;28;20452;-88
2023/08/30 05:57:51;;;;;;;15.53;13.93;;;;;;;12.93;100.00;154680.88;5067760;28;20441;-88
2023/08/30 06:00:18;;;;;;;14.73;13.17;;;;;;;12.96;100.00;154688.66;5068834;28;21966;-87
2023/08/30 06:02:46;;;;;;;16.10;14.47;;;;;;;12.98;100.00;154693.84;5054993;28;20446;-88
2023/08/30 06:05:12;;;;;;;14.17;12.30;;;;;;;13.00;100.00;154697.75;5049065;28;20908;-88
2023/08/30 06:07:39;;;;;;;14.80;13.03;;;;;;;12.99;100.00;154696.47;5049864;28;20439;-89
2023/08/30 06:10:06;;;;;;;16.37;13.60;;;;;;;13.02;100.00;154702.94;5052546;28;20447;-88
2023/08/30 06:12:33;;;;;;;14.30;12.70;;;;;;;13.04;100.00;154709.44;5053984;28;20463;-88
2023/08/30 06:14:59;;;;;;;14.70;13.20;;;;;;;13.06;100.00;154714.59;5062306;28;20442;-88
2023/08/30 06:17:26;;;;;;;15.63;13.13;;;;;;;13.07;100.00;154715.97;5036646;28;20469;-88
2023/08/30 06:19:54;;;;;;;13.93;12.53;;;;;;;13.08;100.00;154718.56;5054703;28;20459;-88
2023/08/30 06:22:21;;;;;;;14.93;12.53;;;;;;;13.07;100.00;154717.25;5036177;28;20457;-88
2023/08/30 06:24:47;;;;;;;15.10;12.43;;;;;;;13.09;100.00;154722.44;5024542;28;20474;-88
2023/08/30 06:27:14;;;;;;;13.37;11.97;;;;;;;13.12;100.00;154728.94;5073338;28;20489;-88
2023/08/30 06:29:40;;;;;;;12.63;11.33;;;;;;;13.14;100.00;154735.41;5054167;28;20465;-88
2023/08/30 06:32:07;;;;;;;13.50;12.10;;;;;;;13.18;100.00;154745.81;5054934;28;20946;-88
2023/08/30 06:34:33;;;;;;;16.33;12.83;;;;;;;13.21;100.00;154753.56;5052998;28;20451;-88
2023/08/30 06:37:01;;;;;;;14.37;12.87;;;;;;;13.22;100.00;154754.88;5051149;28;20462;-88
2023/08/30 06:39:33;;;;;;;14.37;12.90;;;;;;;13.23;100.00;154758.78;5024822;28;20519;-87
2023/08/30 06:42:00;;;;;;;13.47;12.07;;;;;;;13.26;100.00;154766.53;5042146;28;20463;-88
2023/08/30 06:44:28;;;;;;;12.10;10.90;;;;;;;13.28;100.00;154771.75;5012027;28;20460;-88
2023/08/30 06:46:55;;;;;;;15.20;13.43;;;;;;;13.32;100.00;154782.13;5046140;28;20924;-89
2023/08/30 06:49:21;;;;;;;13.47;12.07;;;;;;;13.35;100.00;154789.91;5065543;28;20540;-88
2023/08/30 06:51:48;;;;;;;14.73;13.13;;;;;;;13.37;100.00;154795.09;5025079;28;20466;-88
2023/08/30 06:54:16;;;;;;;14.10;12.70;;;;;;;13.36;100.00;154792.53;5053506;28;20521;-88
2023/08/30 06:56:46;;;;;;;14.20;12.33;;;;;;;13.37;100.00;154795.09;5049690;28;20462;-88
2023/08/30 06:59:13;;;;;;;12.87;11.53;;;;;;;13.39;100.00;154800.31;5053327;28;20541;-89
2023/08/30 07:01:39;;;;;;;13.07;11.77;;;;;;;13.41;100.00;154804.19;5067487;28;20458;-89
2023/08/30 07:04:06;;;;;;;13.13;11.83;;;;;;;13.42;100.00;154808.06;5038374;28;20479;-89
2023/08/30 07:06:32;;;;;;;12.57;11.37;;;;;;;13.44;100.00;154811.97;5067141;28;20483;-88
2023/08/30 07:08:59;;;;;;;13.37;11.90;;;;;;;13.46;100.00;154815.84;5053829;28;20862;-88
2023/08/30 07:11:27;;;;;;;13.57;12.20;;;;;;;13.48;100.00;154822.34;5034219;28;20573;-89
2023/08/30 07:13:54;;;;;;;12.50;11.20;;;;;;;13.48;100.00;154821.03;5055270;28;20458;-89
2023/08/30 07:16:20;;;;;;;12.80;11.50;;;;;;;13.52;100.00;154831.44;5072521;28;20512;-88
2023/08/30 07:18:47;;;;;;;13.00;11.70;;;;;;;13.51;100.00;154830.13;5064547;28;20463;-88
2023/08/30 07:21:13;;;;;;;13.77;11.80;;;;;;;13.53;100.00;154834.06;5026232;28;20499;-88
2023/08/30 07:23:40;;;;;;;13.57;12.17;;;;;;;13.54;100.00;154836.63;5057085;28;20451;-88
2023/08/30 07:26:06;;;;;;;12.33;10.90;;;;;;;13.55;100.00;154840.53;5030950;28;20512;-88
2023/08/30 07:28:34;;;;;;;12.67;11.37;;;;;;;13.58;100.00;154848.28;5056535;28;20457;-88
2023/08/30 07:31:04;;;;;;;12.13;10.80;;;;;;;13.59;100.00;154850.91;5061275;28;20457;-90
2023/08/30 07:33:31;;;;;;;13.57;12.17;;;;;;;13.59;100.00;154850.91;5012660;28;20466;-91
2023/08/30 07:36:00;;;;;;;12.00;10.70;;;;;;;13.60;100.00;154852.22;5068778;28;20557;-91
2023/08/30 07:38:26;;;;;;;13.37;11.70;;;;;;;13.60;100.00;154853.50;5018662;28;20486;-90
2023/08/30 07:40:53;;;;;;;12.77;11.37;;;;;;;13.61;100.00;154854.81;5035080;28;20463;-90
2023/08/30 07:43:19;;;;;;;12.37;10.30;;;;;;;13.64;100.00;154862.56;5053812;28;20500;-90
2023/08/30 07:45:53;;;;;;;13.10;10.03;;;;;;;13.63;100.00;154860.00;5052520;28;20510;-91
2023/08/30 07:48:20;;;;;;;15.90;13.00;;;;;;;13.64;100.00;154862.56;5054895;28;20463;-91
2023/08/30 07:50:46;;;;;;;19.27;12.23;;;;;;;13.66;100.00;154869.06;5054917;28;20459;-89
2023/08/30 07:53:13;;;;;;;12.33;10.93;;;;;;;13.72;100.00;154883.34;5054566;28;21059;-89
2023/08/30 07:55:40;;;;;;;21.93;11.80;;;;;;;13.76;100.00;154893.75;5059501;28;20797;-88
2023/08/30 07:58:08;;;;;;;13.20;11.27;;;;;;;13.79;100.00;154901.53;5055754;28;20451;-90
2023/08/30 08:00:35;;;;;;;11.90;10.70;;;;;;;13.79;100.00;154902.78;5058198;28;20462;-90
2023/08/30 08:03:04;;;;;;;13.93;12.43;;;;;;;13.81;100.00;154906.72;5074905;28;20501;-90
2023/08/30 08:05:30;;;;;;;12.73;11.23;;;;;;;13.84;100.00;154915.81;5053412;28;20503;-91
2023/08/30 08:08:02;;;;;;;13.10;11.80;;;;;;;13.85;100.00;154917.06;5049432;28;20453;-90
2023/08/30 08:10:29;;;;;;;11.73;10.60;;;;;;;13.89;100.00;154927.50;5024876;28;20501;-90
2023/08/30 08:12:56;;;;;;;17.03;10.43;;;;;;;13.93;100.00;154937.84;5022163;28;20788;-90
2023/08/30 08:15:23;;;;;;;11.40;9.83;;;;;;;13.97;100.00;154949.56;5020143;28;20467;-91
2023/08/30 08:17:50;;;;;;;10.53;9.43;;;;;;;14.01;100.00;154958.63;5015873;28;20449;-90
2023/08/30 08:20:22;;;;;;;12.00;10.43;;;;;;;14.07;100.00;154972.91;5025500;28;20868;-91
2023/08/30 08:22:49;;;;;;;11.67;10.40;;;;;;;14.14;100.00;154992.38;5053586;28;20444;-91
2023/08/30 08:25:21;;;;;;;10.90;9.80;;;;;;;14.18;100.00;155002.78;5025475;28;20467;-91
2023/08/30 08:27:50;;;;;;;10.90;9.80;;;;;;;14.20;100.00;155007.97;5031975;28;20485;-91
2023/08/30 08:30:17;;;;;;;11.23;9.53;;;;;;;14.24;100.00;155018.38;5016585;28;20456;-91
2023/08/30 08:32:48;;;;;;;10.80;9.20;;;;;;;14.33;100.00;155041.78;5027349;28;20468;-92
2023/08/30 08:35:16;;;;;;;10.63;9.50;;;;;;;14.38;100.00;155053.47;5020865;28;20456;-91
2023/08/30 08:38:00;;;;;;;11.97;9.27;;;;;;;14.40;100.00;155058.69;5029318;28;20465;-92
2023/08/30 08:43:07;;;;;;;9.80;8.80;;;;;;;14.51;100.00;155088.53;5043233;28;20462;-90
2023/08/30 08:45:35;;;;;;;9.53;8.50;;;;;;;14.59;100.00;155109.31;5052696;28;20577;-90
2023/08/30 08:48:04;;;;;;;9.17;8.27;;;;;;;14.61;100.00;155113.25;5071456;28;20882;-90
2023/08/30 08:50:31;;;;;;;9.17;8.20;;;;;;;14.64;100.00;155122.28;5041472;28;20476;-90
2023/08/30 08:53:00;;;;;;;11.30;9.40;;;;;;;14.68;100.00;155131.41;5007084;28;20484;-90
2023/08/30 08:55:29;;;;;;;9.37;8.50;;;;;;;14.75;100.00;155148.25;5040798;28;20579;-90
2023/08/30 08:57:57;;;;;;;10.20;8.70;;;;;;;14.83;100.00;155170.34;5021844;28;20451;-89
2023/08/30 09:00:24;;;;;;;8.90;7.17;;;;;;;14.89;100.00;155185.97;5057362;28;20470;-90
2023/08/30 09:02:52;;;;;;;9.63;8.63;;;;;;;14.97;100.00;155205.44;5038110;28;20474;-90
2023/08/30 09:05:19;;;;;;;14.70;9.57;;;;;;;15.01;100.00;155217.13;5037334;28;20575;-91
2023/08/30 09:07:46;;;;;;;12.60;8.40;;;;;;;15.13;100.00;155247.03;5021043;28;20481;-90
2023/08/30 09:10:14;;;;;;;9.00;8.10;;;;;;;15.27;100.00;155282.13;5010910;28;20444;-90
2023/08/30 09:12:40;;;;;;;8.23;7.43;;;;;;;15.31;100.00;155293.78;5052219;28;20553;-91
2023/08/30 09:15:07;;;;;;;8.13;7.33;;;;;;;15.33;100.00;155298.97;5056984;28;20791;-91
2023/08/30 09:17:38;;;;;;;8.07;7.30;;;;;;;15.41;100.00;155319.78;5061343;28;20443;-91
2023/08/30 09:20:09;;;;;;;7.80;7.10;;;;;;;15.50;100.00;155341.94;5074108;28;20432;-91
2023/08/30 09:22:39;;;;;;;9.20;7.80;;;;;;;15.52;100.00;155348.44;5043400;28;20459;-91
2023/08/30 09:25:07;;;;;;;8.90;7.40;;;;;;;15.54;100.00;155353.63;5070766;28;20453;-89
2023/08/30 09:27:36;;;;;;;8.50;7.70;;;;;;;15.68;100.00;155390.03;5006917;28;20459;-90
2023/08/30 09:30:04;;;;;;;8.10;7.40;;;;;;;15.79;100.00;155418.63;5056165;28;20459;-90
2023/08/30 09:32:30;;;;;;;8.37;7.60;;;;;;;15.90;100.00;155444.63;5049413;28;20839;-89
2023/08/30 09:34:57;;;;;;;8.43;7.63;;;;;;;15.92;100.00;155449.81;5022718;28;20481;-90
2023/08/30 09:37:28;;;;;;;7.80;7.00;;;;;;;15.97;100.00;155464.13;5030894;28;20968;-90
2023/08/30 09:39:55;;;;;;;6.77;6.17;;;;;;;16.09;100.00;155494.06;5037840;28;20500;-90
2023/08/30 09:42:22;;;;;;;7.93;7.07;;;;;;;16.19;100.00;155520.03;5065762;28;20507;-90
2023/08/30 09:44:50;;;;;;;6.77;6.03;;;;;;;16.30;100.00;155549.97;5008788;28;20805;-89
2023/08/30 09:47:17;;;;;;;6.93;5.97;;;;;;;16.33;100.00;155557.78;5072460;28;20514;-90
2023/08/30 09:49:45;;;;;;;6.97;6.37;;;;;;;16.39;100.00;155572.06;5057108;28;20505;-89
2023/08/30 09:52:13;;;;;;;7.17;6.57;;;;;;;16.46;100.00;155590.28;5057105;28;20528;-91
2023/08/30 09:54:41;;;;;;;6.03;5.43;;;;;;;16.45;100.00;155587.66;5050488;28;20557;-91
2023/08/30 09:57:08;;;;;;;7.67;6.97;;;;;;;16.55;100.00;155613.72;5060283;28;20458;-90
2023/08/30 09:59:35;;;;;;;5.67;5.17;;;;;;;16.57;100.00;155618.97;5059732;28;20450;-91
2023/08/30 10:02:05;;;;;;;5.87;5.20;;;;;;;16.72;100.00;155657.97;5015755;28;20466;-91
2023/08/30 10:04:32;;;;;;;6.20;5.70;;;;;;;16.76;100.00;155668.38;5054387;28;20464;-91
2023/08/30 10:06:59;;;;;;;6.37;5.77;;;;;;;16.85;100.00;155690.50;5015725;28;20480;-91
2023/08/30 10:09:26;;;;;;;6.30;5.70;;;;;;;16.88;100.00;155698.31;5041078;28;20479;-91
2023/08/30 10:11:53;;;;;;;6.20;5.60;;;;;;;16.90;100.00;155704.81;5055452;28;20462;-92
2023/08/30 10:14:20;;;;;;;10.03;6.40;;;;;;;16.92;100.00;155710.00;5071772;28;20455;-91
2023/08/30 10:16:48;;;;;;;7.07;6.30;;;;;;;16.98;100.00;155725.63;5054441;28;20547;-92
2023/08/30 10:19:17;;;;;;;5.90;5.40;;;;;;;17.07;100.00;155746.44;5070217;28;20502;-91
2023/08/30 10:21:45;;;;;;;6.10;5.50;;;;;;;17.05;100.00;155743.81;5023950;28;20520;-91
2023/08/30 10:24:13;;;;;;;5.67;5.17;;;;;;;17.14;100.00;155764.66;5065412;28;20979;-92
2023/08/30 10:26:41;;;;;;;5.80;5.30;;;;;;;17.17;100.00;155772.47;5074993;28;20509;-93
2023/08/30 10:29:09;;;;;;;5.60;4.57;;;;;;;17.26;100.00;155795.91;5037134;28;20538;-91
2023/08/30 10:31:37;;;;;;;5.33;4.90;;;;;;;17.28;100.00;155801.09;5022093;28;20454;-91
2023/08/30 10:34:16;;;;;;;6.03;5.33;;;;;;;17.35;100.00;155819.31;5038590;28;20808;-91
2023/08/30 10:36:43;;;;;;;4.67;4.27;;;;;;;17.35;100.00;155819.31;5020335;28;20443;-92
2023/08/30 10:39:13;;;;;;;4.50;4.10;;;;;;;17.47;100.00;155850.56;5036020;28;20494;-91
2023/08/30 10:41:55;;;;;;;4.50;4.10;;;;;;;17.40;100.00;155833.63;5054987;28;20554;-93
2023/08/30 10:44:23;;;;;;;7.03;4.77;;;;;;;17.51;100.00;155862.28;5038137;28;20457;-91
2023/08/30 10:46:53;;;;;;;4.63;4.23;;;;;;;17.58;97.86;155879.22;5031734;28;20478;-89
2023/08/30 10:49:23;;;;;;;4.13;3.83;;;;;;;17.57;97.09;155876.66;5035374;28;20510;-92
2023/08/30 10:52:00;;;;;;;4.80;4.40;;;;;;;17.63;97.42;155893.53;5020771;28;20487;-90
2023/08/30 10:54:38;;;;;;;4.83;4.43;;;;;;;17.59;96.10;155881.84;5071071;28;20495;-91
2023/08/30 10:57:05;;;;;;;4.07;3.77;;;;;;;17.69;97.42;155907.88;5073798;28;20485;-92
2023/08/30 10:59:32;;;;;;;6.33;4.20;;;;;;;17.79;96.21;155933.91;5060737;28;20783;-91
2023/08/30 11:02:03;;;;;;;5.10;4.60;;;;;;;17.89;97.87;155959.97;5050900;28;20501;-91
2023/08/30 11:04:31;;;;;;;4.60;4.20;;;;;;;17.88;98.17;155956.03;5040202;28;20454;-91
2023/08/30 11:06:58;;;;;;;6.40;4.90;;;;;;;17.95;97.36;155975.56;5079722;28;20582;-91
2023/08/30 11:09:26;;;;;;;4.67;4.27;;;;;;;18.03;99.42;155996.41;5060751;28;20517;-91